createdAt,value
2017-12-20T00:00:39.905Z,6.40
2017-12-20T00:03:07.377Z,6.40
2017-12-20T00:05:36.351Z,6.30
2017-12-20T00:08:03.841Z,6.30
2017-12-20T00:10:31.314Z,6.30
2017-12-20T00:12:58.729Z,6.20
2017-12-20T00:15:26.162Z,6.30
2017-12-20T00:17:53.562Z,6.30
2017-12-20T00:20:20.982Z,6.30
2017-12-20T00:22:49.146Z,6.30
2017-12-20T00:25:16.699Z,6.30
2017-12-20T00:27:44.214Z,6.20
2017-12-20T00:30:11.641Z,6.20
2017-12-20T00:32:39.186Z,6.20
2017-12-20T00:35:06.586Z,6.10
2017-12-20T00:37:34.011Z,6.10
2017-12-20T00:40:01.470Z,6.10
2017-12-20T00:42:28.945Z,6.10
2017-12-20T00:44:56.358Z,6.10
2017-12-20T00:47:23.865Z,6.10
2017-12-20T00:49:51.349Z,6.10
2017-12-20T00:52:18.799Z,6.10
2017-12-20T00:54:46.231Z,6.10
2017-12-20T00:57:13.652Z,6.20
2017-12-20T00:59:41.122Z,6.10
2017-12-20T01:02:08.581Z,6.10
2017-12-20T01:04:36.055Z,6.20
2017-12-20T01:07:03.470Z,6.20
2017-12-20T01:09:30.879Z,6.20
2017-12-20T01:11:58.309Z,6.20
2017-12-20T01:14:25.721Z,6.20
2017-12-20T01:16:53.129Z,6.20
2017-12-20T01:19:20.554Z,6.20
2017-12-20T01:21:47.965Z,6.10
2017-12-20T01:24:15.369Z,6.00
2017-12-20T01:26:43.582Z,5.90
2017-12-20T01:29:10.999Z,5.90
2017-12-20T01:31:38.402Z,5.80
2017-12-20T01:34:05.813Z,5.80
2017-12-20T01:36:33.358Z,5.80
2017-12-20T01:39:01.506Z,5.80
2017-12-20T01:41:29.718Z,5.80
2017-12-20T01:43:57.118Z,5.80
2017-12-20T01:46:24.551Z,5.80
2017-12-20T01:48:51.966Z,5.70
2017-12-20T01:51:19.378Z,5.70
2017-12-20T01:53:47.590Z,5.60
2017-12-20T01:56:15.058Z,5.60
2017-12-20T01:58:42.632Z,5.70
2017-12-20T02:01:10.117Z,5.70
2017-12-20T02:03:37.502Z,5.70
2017-12-20T02:06:05.026Z,5.70
2017-12-20T02:08:33.314Z,5.70
2017-12-20T02:11:00.788Z,5.70
2017-12-20T02:13:28.218Z,5.70
2017-12-20T02:15:56.398Z,5.60
2017-12-20T02:18:23.921Z,5.60
2017-12-20T02:20:51.326Z,5.60
2017-12-20T02:23:18.847Z,5.70
2017-12-20T02:25:46.323Z,5.70
2017-12-20T02:28:13.790Z,5.60
2017-12-20T02:30:41.249Z,5.60
2017-12-20T02:33:20.653Z,5.60
2017-12-20T02:35:48.057Z,5.60
2017-12-20T02:38:21.373Z,5.70
2017-12-20T02:40:48.850Z,5.60
2017-12-20T02:43:16.260Z,5.60
2017-12-20T02:45:43.794Z,5.60
2017-12-20T02:48:11.262Z,5.50
2017-12-20T02:50:38.661Z,5.50
2017-12-20T02:53:06.069Z,5.50
2017-12-20T02:55:33.507Z,5.50
2017-12-20T02:58:01.026Z,5.50
2017-12-20T03:00:28.438Z,5.50
2017-12-20T03:02:55.973Z,5.50
2017-12-20T03:05:23.442Z,5.50
2017-12-20T03:07:50.889Z,5.50
2017-12-20T03:10:19.070Z,5.40
2017-12-20T03:12:47.282Z,5.50
2017-12-20T03:15:15.461Z,5.50
2017-12-20T03:17:42.930Z,5.50
2017-12-20T03:20:10.342Z,5.60
2017-12-20T03:22:37.767Z,5.60
2017-12-20T03:25:05.178Z,5.60
2017-12-20T03:27:34.134Z,5.50
2017-12-20T03:30:01.558Z,5.50
2017-12-20T03:32:29.081Z,5.50
2017-12-20T03:34:56.484Z,5.60
2017-12-20T03:37:24.013Z,5.60
2017-12-20T03:39:51.422Z,5.70
2017-12-20T03:42:18.876Z,5.60
2017-12-20T03:44:46.328Z,5.70
2017-12-20T03:47:13.790Z,5.70
2017-12-20T03:49:41.261Z,5.70
2017-12-20T03:52:08.666Z,5.80
2017-12-20T03:54:36.078Z,5.80
2017-12-20T03:57:03.501Z,5.80
2017-12-20T03:59:30.902Z,5.80
2017-12-20T04:01:59.115Z,5.80
2017-12-20T04:04:26.518Z,5.80
2017-12-20T04:06:53.931Z,5.80
2017-12-20T04:09:22.145Z,5.70
2017-12-20T04:11:49.600Z,5.70
2017-12-20T04:14:17.008Z,5.70
2017-12-20T04:16:44.434Z,5.70
2017-12-20T04:19:11.915Z,5.70
2017-12-20T04:21:39.383Z,5.70
2017-12-20T04:24:06.787Z,5.70
2017-12-20T04:26:34.207Z,5.70
2017-12-20T04:29:01.687Z,5.70
2017-12-20T04:31:29.096Z,5.70
2017-12-20T04:33:56.533Z,5.70
2017-12-20T04:36:23.950Z,5.70
2017-12-20T04:38:52.171Z,5.70
2017-12-20T04:41:19.609Z,5.70
2017-12-20T04:43:47.787Z,5.60
2017-12-20T04:46:17.180Z,5.60
2017-12-20T04:48:44.599Z,5.70
2017-12-20T04:51:12.794Z,5.70
2017-12-20T04:53:40.210Z,5.70
2017-12-20T04:56:07.636Z,5.70
2017-12-20T04:58:35.045Z,5.70
2017-12-20T05:01:02.450Z,5.80
2017-12-20T05:03:30.626Z,5.80
2017-12-20T05:05:58.798Z,5.90
2017-12-20T05:08:26.222Z,5.80
2017-12-20T05:10:53.631Z,5.90
2017-12-20T05:13:21.138Z,5.90
2017-12-20T05:15:48.618Z,5.80
2017-12-20T05:18:16.804Z,5.90
2017-12-20T05:20:44.978Z,5.90
2017-12-20T05:23:12.394Z,5.90
2017-12-20T05:25:39.817Z,6.00
2017-12-20T05:28:07.283Z,6.00
2017-12-20T05:30:34.686Z,6.00
2017-12-20T05:33:02.120Z,5.90
2017-12-20T05:35:29.518Z,5.90
2017-12-20T05:37:56.954Z,5.90
2017-12-20T05:40:24.362Z,5.80
2017-12-20T05:42:51.773Z,5.90
2017-12-20T05:45:19.943Z,5.90
2017-12-20T05:47:47.368Z,5.90
2017-12-20T05:50:15.735Z,5.90
2017-12-20T05:52:43.202Z,5.90
2017-12-20T05:55:10.614Z,5.90
2017-12-20T05:57:38.157Z,5.80
2017-12-20T06:00:05.579Z,5.80
2017-12-20T06:02:33.794Z,5.90
2017-12-20T06:05:01.262Z,5.90
2017-12-20T06:07:28.745Z,5.90
2017-12-20T06:09:56.898Z,6.00
2017-12-20T06:12:25.109Z,6.00
2017-12-20T06:14:52.507Z,6.00
2017-12-20T06:17:19.938Z,6.10
2017-12-20T06:19:47.410Z,6.00
2017-12-20T06:22:14.824Z,6.00
2017-12-20T06:24:42.251Z,6.00
2017-12-20T06:27:09.706Z,6.10
2017-12-20T06:29:37.194Z,6.10
2017-12-20T06:32:05.341Z,6.10
2017-12-20T06:34:33.510Z,6.10
2017-12-20T06:37:00.934Z,6.10
2017-12-20T06:39:28.394Z,6.10
2017-12-20T06:41:55.798Z,6.10
2017-12-20T06:44:23.206Z,6.10
2017-12-20T06:46:51.410Z,6.00
2017-12-20T06:49:18.886Z,5.90
2017-12-20T06:51:46.362Z,5.90
2017-12-20T06:54:13.829Z,5.90
2017-12-20T06:56:41.264Z,5.90
2017-12-20T06:59:08.665Z,5.90
2017-12-20T07:01:36.073Z,5.80
2017-12-20T07:04:03.590Z,5.90
2017-12-20T07:06:31.017Z,5.80
2017-12-20T07:08:58.422Z,5.70
2017-12-20T07:11:26.664Z,5.70
2017-12-20T07:13:54.026Z,5.70
2017-12-20T07:16:21.442Z,5.80
2017-12-20T07:18:49.637Z,5.90
2017-12-20T07:21:17.114Z,5.80
2017-12-20T07:23:44.578Z,5.90
2017-12-20T07:26:12.011Z,5.80
2017-12-20T07:28:39.521Z,5.90
2017-12-20T07:31:06.995Z,5.90
2017-12-20T07:33:35.165Z,5.90
2017-12-20T07:36:02.653Z,5.90
2017-12-20T07:38:30.805Z,5.80
2017-12-20T07:40:58.755Z,5.80
2017-12-20T07:43:26.166Z,5.80
2017-12-20T07:45:53.646Z,5.80
2017-12-20T07:48:21.050Z,5.80
2017-12-20T07:50:48.510Z,5.80
2017-12-20T07:53:15.962Z,5.80
2017-12-20T07:55:43.377Z,5.70
2017-12-20T07:58:10.785Z,5.80
2017-12-20T08:00:38.249Z,5.80
2017-12-20T08:03:05.671Z,5.80
2017-12-20T08:05:33.079Z,5.80
2017-12-20T08:08:01.250Z,5.90
2017-12-20T08:10:29.422Z,5.90
2017-12-20T08:12:56.941Z,5.90
2017-12-20T08:15:24.326Z,5.90
2017-12-20T08:17:51.774Z,5.90
2017-12-20T08:20:19.921Z,5.90
2017-12-20T08:22:47.327Z,5.90
2017-12-20T08:25:15.718Z,6.00
2017-12-20T08:27:43.899Z,6.00
2017-12-20T08:30:11.374Z,6.00
2017-12-20T08:32:38.867Z,6.00
2017-12-20T08:35:06.245Z,6.00
2017-12-20T08:37:33.650Z,6.00
2017-12-20T08:40:01.863Z,6.10
2017-12-20T08:42:29.287Z,6.10
2017-12-20T08:44:56.682Z,6.10
2017-12-20T08:47:24.218Z,6.00
2017-12-20T08:49:51.629Z,6.00
2017-12-20T08:52:19.054Z,6.00
2017-12-20T08:54:46.462Z,5.90
2017-12-20T08:57:13.872Z,5.90
2017-12-20T08:59:41.406Z,5.90
2017-12-20T09:02:08.814Z,6.00
2017-12-20T09:04:36.220Z,6.00
2017-12-20T09:07:04.390Z,6.00
2017-12-20T09:09:32.571Z,6.00
2017-12-20T09:11:59.999Z,6.00
2017-12-20T09:14:27.385Z,6.00
2017-12-20T09:16:54.820Z,6.00
2017-12-20T09:19:22.289Z,6.00
2017-12-20T09:21:50.575Z,6.10
2017-12-20T09:24:18.045Z,6.00
2017-12-20T09:26:46.222Z,6.10
2017-12-20T09:29:13.702Z,6.10
2017-12-20T09:31:41.880Z,6.10
2017-12-20T09:34:09.298Z,6.10
2017-12-20T09:36:36.712Z,6.20
2017-12-20T09:39:04.129Z,6.20
2017-12-20T09:41:31.550Z,6.20
2017-12-20T09:43:58.965Z,6.20
2017-12-20T09:46:26.375Z,6.20
2017-12-20T09:48:54.577Z,6.30
2017-12-20T09:51:22.052Z,6.30
2017-12-20T09:53:49.624Z,6.30
2017-12-20T09:56:17.908Z,6.40
2017-12-20T09:58:46.087Z,6.40
2017-12-20T10:01:13.566Z,6.40
2017-12-20T10:03:41.738Z,6.40
2017-12-20T10:06:09.151Z,6.40
2017-12-20T10:08:36.574Z,6.50
2017-12-20T10:11:03.993Z,6.40
2017-12-20T10:13:31.442Z,6.50
2017-12-20T10:15:58.893Z,6.60
2017-12-20T10:18:26.304Z,6.60
2017-12-20T10:20:53.927Z,6.80
2017-12-20T10:23:21.400Z,6.70
2017-12-20T10:25:49.541Z,6.60
2017-12-20T10:28:17.712Z,6.60
2017-12-20T10:30:45.127Z,6.60
2017-12-20T10:33:12.604Z,6.60
2017-12-20T10:35:40.799Z,6.70
2017-12-20T10:38:08.258Z,6.70
2017-12-20T10:40:36.409Z,6.90
2017-12-20T10:43:04.628Z,6.90
2017-12-20T10:45:32.110Z,6.90
2017-12-20T10:47:59.563Z,7.00
2017-12-20T10:50:26.957Z,7.10
2017-12-20T10:52:54.370Z,7.20
2017-12-20T10:55:22.537Z,7.30
2017-12-20T10:57:50.059Z,7.30
2017-12-20T11:00:17.521Z,7.30
2017-12-20T11:02:44.930Z,7.30
2017-12-20T11:05:12.350Z,7.30
2017-12-20T11:07:40.027Z,7.30
2017-12-20T11:10:08.209Z,7.20
2017-12-20T11:12:35.609Z,7.20
2017-12-20T11:15:03.024Z,7.10
2017-12-20T11:17:31.234Z,7.00
2017-12-20T11:19:58.654Z,7.00
2017-12-20T11:22:26.070Z,7.00
2017-12-20T11:24:53.487Z,7.00
2017-12-20T11:27:20.911Z,7.10
2017-12-20T11:29:48.373Z,7.10
2017-12-20T11:32:15.773Z,7.20
2017-12-20T11:34:43.192Z,7.20
2017-12-20T11:37:11.370Z,7.30
2017-12-20T11:39:39.696Z,7.30
2017-12-20T11:42:07.098Z,7.30
2017-12-20T11:44:34.522Z,7.40
2017-12-20T11:47:01.927Z,7.40
2017-12-20T11:49:29.325Z,7.50
2017-12-20T11:51:57.550Z,7.60
2017-12-20T11:54:25.717Z,7.60
2017-12-20T11:56:53.208Z,7.60
2017-12-20T11:59:21.358Z,7.60
2017-12-20T12:01:49.529Z,7.60
2017-12-20T12:04:17.034Z,7.60
2017-12-20T12:06:44.438Z,7.60
2017-12-20T12:09:11.874Z,7.60
2017-12-20T12:11:39.289Z,7.60
2017-12-20T12:14:06.689Z,7.60
2017-12-20T12:16:35.006Z,7.60
2017-12-20T12:19:03.182Z,7.60
2017-12-20T12:21:30.663Z,7.60
2017-12-20T12:23:58.815Z,7.60
2017-12-20T12:26:26.978Z,7.60
2017-12-20T12:28:54.399Z,7.60
2017-12-20T12:31:21.868Z,7.60
2017-12-20T12:33:50.010Z,7.60
2017-12-20T12:36:17.418Z,7.60
2017-12-20T12:38:44.890Z,7.60
2017-12-20T12:41:13.045Z,7.60
2017-12-20T12:43:40.449Z,7.60
2017-12-20T12:46:07.858Z,7.70
2017-12-20T12:48:36.029Z,7.80
2017-12-20T12:51:03.445Z,7.80
2017-12-20T12:53:30.866Z,7.90
2017-12-20T12:55:58.402Z,7.90
2017-12-20T12:58:25.854Z,8.00
2017-12-20T13:00:53.265Z,8.10
2017-12-20T13:03:20.674Z,8.20
2017-12-20T13:05:48.882Z,8.20
2017-12-20T13:08:16.390Z,8.20
2017-12-20T13:10:43.817Z,8.20
2017-12-20T13:13:11.305Z,8.20
2017-12-20T13:15:38.764Z,8.20
2017-12-20T13:18:06.172Z,8.00
2017-12-20T13:20:33.604Z,8.00
2017-12-20T13:23:01.737Z,7.90
2017-12-20T13:25:29.245Z,8.00
2017-12-20T13:27:56.731Z,7.90
2017-12-20T13:30:24.121Z,7.90
2017-12-20T13:32:51.594Z,7.90
2017-12-20T13:35:19.067Z,7.90
2017-12-20T13:37:46.504Z,7.90
2017-12-20T13:40:13.933Z,7.90
2017-12-20T13:42:41.326Z,7.90
2017-12-20T13:45:08.805Z,8.40
2017-12-20T13:47:36.266Z,8.40
2017-12-20T13:50:03.730Z,8.30
2017-12-20T13:52:31.206Z,8.20
2017-12-20T13:54:58.613Z,8.10
2017-12-20T13:57:26.041Z,8.00
2017-12-20T13:59:53.445Z,7.90
2017-12-20T14:02:20.869Z,7.80
2017-12-20T14:04:48.282Z,7.80
2017-12-20T14:07:15.713Z,7.80
2017-12-20T14:09:43.203Z,7.80
2017-12-20T14:12:10.649Z,7.70
2017-12-20T14:14:38.116Z,7.70
2017-12-20T14:17:05.586Z,7.70
2017-12-20T14:19:33.002Z,7.60
2017-12-20T14:22:00.406Z,7.70
2017-12-20T14:24:28.598Z,7.70
2017-12-20T14:26:56.009Z,7.60
2017-12-20T14:29:23.453Z,7.60
2017-12-20T14:31:50.863Z,7.60
2017-12-20T14:34:19.814Z,7.60
2017-12-20T14:36:47.228Z,7.60
2017-12-20T14:39:14.664Z,7.50
2017-12-20T14:41:42.055Z,7.50
2017-12-20T14:44:09.458Z,7.50
2017-12-20T14:46:37.633Z,7.50
2017-12-20T14:49:05.190Z,7.50
2017-12-20T14:51:32.623Z,7.40
2017-12-20T14:54:00.015Z,7.40
2017-12-20T14:56:27.437Z,7.40
2017-12-20T14:58:54.922Z,7.40
2017-12-20T15:01:22.391Z,7.40
2017-12-20T15:03:49.857Z,7.40
2017-12-20T15:06:17.272Z,7.50
2017-12-20T15:08:44.670Z,7.50
2017-12-20T15:11:12.886Z,7.50
2017-12-20T15:13:40.356Z,7.50
2017-12-20T15:16:08.646Z,7.40
2017-12-20T15:18:36.793Z,7.40
2017-12-20T15:21:04.966Z,7.40
2017-12-20T15:23:32.366Z,7.40
2017-12-20T15:25:59.782Z,7.40
2017-12-20T15:28:27.215Z,7.30
2017-12-20T15:30:55.365Z,7.40
2017-12-20T15:33:23.589Z,7.40
2017-12-20T15:35:51.042Z,7.40
2017-12-20T15:38:18.450Z,7.40
2017-12-20T15:40:45.861Z,7.40
2017-12-20T15:43:14.078Z,7.40
2017-12-20T15:45:41.489Z,7.40
2017-12-20T15:48:09.005Z,7.40
2017-12-20T15:50:36.503Z,7.40
2017-12-20T15:53:03.885Z,7.30
2017-12-20T15:55:31.310Z,7.30
2017-12-20T15:57:58.722Z,7.30
2017-12-20T16:00:26.132Z,7.30
2017-12-20T16:02:54.339Z,7.30
2017-12-20T16:05:21.807Z,7.30
2017-12-20T16:07:49.271Z,7.30
2017-12-20T16:10:16.738Z,7.30
2017-12-20T16:12:44.157Z,7.30
2017-12-20T16:15:11.578Z,7.30
2017-12-20T16:17:39.042Z,7.30
2017-12-20T16:20:06.478Z,7.30
2017-12-20T16:22:33.891Z,7.30
2017-12-20T16:25:01.350Z,7.30
2017-12-20T16:27:28.828Z,7.30
2017-12-20T16:29:56.985Z,7.40
2017-12-20T16:32:25.188Z,7.40
2017-12-20T16:34:52.609Z,7.40
2017-12-20T16:37:20.020Z,7.40
2017-12-20T16:39:47.504Z,7.40
2017-12-20T16:42:15.654Z,7.40
2017-12-20T16:44:43.057Z,7.40
2017-12-20T16:47:10.513Z,7.40
2017-12-20T16:49:38.002Z,7.40
2017-12-20T16:52:05.424Z,7.30
2017-12-20T16:54:32.842Z,7.40
2017-12-20T16:57:00.250Z,7.40
2017-12-20T16:59:27.664Z,7.40
2017-12-20T17:01:55.871Z,7.40
2017-12-20T17:04:24.062Z,7.40
2017-12-20T17:06:51.481Z,7.40
2017-12-20T17:09:18.991Z,7.40
2017-12-20T17:11:46.465Z,7.30
2017-12-20T17:14:14.619Z,7.40
2017-12-20T17:16:42.818Z,7.40
2017-12-20T17:19:10.237Z,7.30
2017-12-20T17:21:37.670Z,7.30
2017-12-20T17:24:05.147Z,7.30
2017-12-20T17:26:32.534Z,7.30
2017-12-20T17:28:59.958Z,7.30
2017-12-20T17:31:27.467Z,7.30
2017-12-20T17:33:54.898Z,7.30
2017-12-20T17:36:22.378Z,7.40
2017-12-20T17:38:49.789Z,7.30
2017-12-20T17:41:17.194Z,7.30
2017-12-20T17:43:45.398Z,7.40
2017-12-20T17:46:12.822Z,7.30
2017-12-20T17:48:40.237Z,7.40
2017-12-20T17:51:07.709Z,7.30
2017-12-20T17:53:35.167Z,7.30
2017-12-20T17:56:02.574Z,7.20
2017-12-20T17:58:30.007Z,7.30
2017-12-20T18:00:57.419Z,7.20
2017-12-20T18:03:24.837Z,7.20
2017-12-20T18:05:52.381Z,7.20
2017-12-20T18:08:19.733Z,7.10
2017-12-20T18:10:47.148Z,7.20
2017-12-20T18:13:14.625Z,7.10
2017-12-20T18:15:42.778Z,7.10
2017-12-20T18:18:10.954Z,7.10
2017-12-20T18:20:39.133Z,7.20
2017-12-20T18:23:06.542Z,7.10
2017-12-20T18:25:33.953Z,7.20
2017-12-20T18:28:01.391Z,7.20
2017-12-20T18:30:28.786Z,7.20
2017-12-20T18:32:56.207Z,7.20
2017-12-20T18:35:23.601Z,7.20
2017-12-20T18:37:51.016Z,7.20
2017-12-20T18:40:19.199Z,7.20
2017-12-20T18:42:46.812Z,7.30
2017-12-20T18:45:14.965Z,7.30
2017-12-20T18:47:42.366Z,7.30
2017-12-20T18:50:09.774Z,7.30
2017-12-20T18:52:37.207Z,7.30
2017-12-20T18:55:04.606Z,7.30
2017-12-20T18:57:32.031Z,7.30
2017-12-20T18:59:59.493Z,7.30
2017-12-20T19:02:27.075Z,7.30
2017-12-20T19:04:55.251Z,7.40
2017-12-20T19:07:22.666Z,7.40
2017-12-20T19:09:50.086Z,7.40
2017-12-20T19:12:17.489Z,7.40
2017-12-20T19:14:44.906Z,7.40
2017-12-20T19:17:13.222Z,7.40
2017-12-20T19:19:40.634Z,7.40
2017-12-20T19:22:08.054Z,7.40
2017-12-20T19:24:35.446Z,7.40
2017-12-20T19:27:02.863Z,7.30
2017-12-20T19:29:31.030Z,7.40
2017-12-20T19:31:58.455Z,7.40
2017-12-20T19:34:25.858Z,7.40
2017-12-20T19:36:53.282Z,7.40
2017-12-20T19:39:20.678Z,7.40
2017-12-20T19:41:48.098Z,7.40
2017-12-20T19:44:16.278Z,7.40
2017-12-20T19:46:44.454Z,7.40
2017-12-20T19:49:12.628Z,7.40
2017-12-20T19:51:40.059Z,7.40
2017-12-20T19:54:07.462Z,7.40
2017-12-20T19:56:34.871Z,7.40
2017-12-20T19:59:02.279Z,7.40
2017-12-20T20:01:29.687Z,7.40
2017-12-20T20:03:57.890Z,7.50
2017-12-20T20:06:25.357Z,7.50
2017-12-20T20:08:52.776Z,7.40
2017-12-20T20:11:20.304Z,7.40
2017-12-20T20:13:48.599Z,7.50
2017-12-20T20:16:16.069Z,7.50
2017-12-20T20:18:43.475Z,7.40
2017-12-20T20:21:10.894Z,7.50
2017-12-20T20:23:38.368Z,7.50
2017-12-20T20:26:06.557Z,7.50
2017-12-20T20:28:33.966Z,7.50
2017-12-20T20:31:01.369Z,7.40
2017-12-20T20:33:28.846Z,7.40
2017-12-20T20:35:56.253Z,7.40
2017-12-20T20:38:23.666Z,7.40
2017-12-20T20:40:51.851Z,7.40
2017-12-20T20:43:20.027Z,7.30
2017-12-20T20:45:48.250Z,7.30
2017-12-20T20:48:15.654Z,7.30
2017-12-20T20:50:43.078Z,7.30
2017-12-20T20:53:10.490Z,7.30
2017-12-20T20:55:37.914Z,7.30
2017-12-20T20:58:05.328Z,7.30
2017-12-20T21:00:32.730Z,7.30
2017-12-20T21:03:00.928Z,7.30
2017-12-20T21:05:28.334Z,7.30
2017-12-20T21:07:55.753Z,7.30
2017-12-20T21:10:23.943Z,7.30
2017-12-20T21:12:52.126Z,7.30
2017-12-20T21:15:20.343Z,7.30
2017-12-20T21:17:47.742Z,7.20
2017-12-20T21:20:15.162Z,7.20
2017-12-20T21:22:42.639Z,7.20
2017-12-20T21:25:10.097Z,7.20
2017-12-20T21:27:37.507Z,7.30
2017-12-20T21:30:04.910Z,7.30
2017-12-20T21:32:33.120Z,7.30
2017-12-20T21:35:01.302Z,7.30
2017-12-20T21:37:28.713Z,7.30
2017-12-20T21:39:56.122Z,7.30
2017-12-20T21:42:24.297Z,7.30
2017-12-20T21:44:52.514Z,7.30
2017-12-20T21:47:19.998Z,7.30
2017-12-20T21:49:47.407Z,7.30
2017-12-20T21:52:14.817Z,7.30
2017-12-20T21:54:42.290Z,7.30
2017-12-20T21:57:09.702Z,7.30
2017-12-20T21:59:37.124Z,7.30
2017-12-20T22:02:04.535Z,7.30
2017-12-20T22:04:31.968Z,7.30
2017-12-20T22:06:59.430Z,7.40
2017-12-20T22:09:26.846Z,7.30
2017-12-20T22:11:54.258Z,7.30
2017-12-20T22:14:21.730Z,7.30
2017-12-20T22:16:49.180Z,7.30
2017-12-20T22:19:16.677Z,7.30
2017-12-20T22:21:44.149Z,7.30
2017-12-20T22:24:11.613Z,7.30
2017-12-20T22:26:39.105Z,7.30
2017-12-20T22:29:06.516Z,7.40
2017-12-20T22:31:34.028Z,7.40
2017-12-20T22:34:01.439Z,7.40
2017-12-20T22:36:28.845Z,7.30
2017-12-20T22:38:56.272Z,7.40
2017-12-20T22:41:23.684Z,7.30
2017-12-20T22:43:51.161Z,7.40
2017-12-20T22:46:18.639Z,7.40
2017-12-20T22:48:46.106Z,7.40
2017-12-20T22:51:13.526Z,7.40
2017-12-20T22:53:40.939Z,7.40
2017-12-20T22:56:08.404Z,7.50
2017-12-20T22:58:35.840Z,7.50
2017-12-20T23:01:04.037Z,7.50
2017-12-20T23:03:32.247Z,7.50
2017-12-20T23:05:59.750Z,7.50
2017-12-20T23:11:01.103Z,7.50
2017-12-20T23:13:28.518Z,7.40
2017-12-20T23:15:55.940Z,7.40
2017-12-20T23:18:23.418Z,7.40
2017-12-20T23:20:50.830Z,7.40
2017-12-20T23:23:18.344Z,7.40
2017-12-20T23:25:45.759Z,7.40
2017-12-20T23:28:13.170Z,7.40
2017-12-20T23:30:40.678Z,7.40
2017-12-20T23:33:08.094Z,7.40
2017-12-20T23:35:36.280Z,7.50
2017-12-20T23:38:04.466Z,7.40
2017-12-20T23:40:32.657Z,7.50
2017-12-20T23:43:00.860Z,7.50
2017-12-20T23:45:28.266Z,7.50
2017-12-20T23:47:55.696Z,7.50
2017-12-20T23:50:23.276Z,7.50
2017-12-20T23:52:51.441Z,7.50
2017-12-20T23:55:19.666Z,7.50
2017-12-20T23:57:47.219Z,7.50
